createdAt,value
2018-09-10T00:00:15.058Z,1.00
2018-09-10T00:02:43.220Z,1.00
2018-09-10T00:05:11.360Z,1.00
2018-09-10T00:07:39.542Z,1.00
2018-09-10T00:10:07.686Z,1.00
2018-09-10T00:12:35.854Z,1.00
2018-09-10T00:15:04.024Z,1.00
2018-09-10T00:17:32.225Z,1.00
2018-09-10T00:20:00.428Z,1.00
2018-09-10T00:22:28.575Z,1.00
2018-09-10T00:24:56.732Z,1.00
2018-09-10T00:27:24.873Z,1.00
2018-09-10T00:29:53.010Z,1.00
2018-09-10T00:32:21.161Z,1.00
2018-09-10T00:34:49.380Z,1.00
2018-09-10T00:37:17.588Z,1.00
2018-09-10T00:39:45.759Z,1.00
2018-09-10T00:42:13.930Z,1.00
2018-09-10T00:44:42.081Z,1.00
2018-09-10T00:47:10.233Z,1.00
2018-09-10T00:49:38.511Z,1.00
2018-09-10T00:52:06.657Z,1.00
2018-09-10T00:54:34.858Z,1.00
2018-09-10T00:57:02.986Z,1.00
2018-09-10T00:59:31.217Z,1.00
2018-09-10T01:04:27.247Z,1.00
2018-09-10T01:06:55.403Z,1.30
2018-09-10T01:09:23.569Z,1.00
2018-09-10T01:11:51.760Z,1.00
2018-09-10T01:14:19.919Z,1.30
2018-09-10T01:16:48.061Z,1.00
2018-09-10T01:19:16.437Z,1.90
2018-09-10T01:21:44.622Z,1.50
2018-09-10T01:24:12.816Z,1.00
2018-09-10T01:26:40.964Z,1.30
2018-09-10T01:29:09.159Z,3.10
2018-09-10T01:31:37.283Z,3.60
2018-09-10T01:34:10.940Z,3.70
2018-09-10T01:36:39.073Z,3.40
2018-09-10T01:39:07.583Z,4.30
2018-09-10T01:41:35.771Z,5.60
2018-09-10T01:44:03.965Z,6.30
2018-09-10T01:46:32.168Z,5.50
2018-09-10T01:49:00.316Z,7.30
2018-09-10T01:51:28.456Z,6.80
2018-09-10T01:53:56.634Z,6.30
2018-09-10T01:56:24.799Z,6.60
2018-09-10T01:58:52.932Z,5.70
2018-09-10T02:01:21.061Z,7.00
2018-09-10T02:03:49.263Z,7.40
2018-09-10T02:06:17.427Z,7.20
2018-09-10T02:08:45.571Z,8.40
2018-09-10T02:11:13.723Z,9.50
2018-09-10T02:13:41.907Z,8.80
2018-09-10T02:16:15.994Z,9.60
2018-09-10T02:18:45.102Z,8.30
2018-09-10T02:23:41.367Z,8.40
2018-09-10T02:26:09.501Z,9.90
2018-09-10T02:28:37.661Z,8.60
2018-09-10T02:31:06.056Z,9.40
2018-09-10T02:33:34.330Z,9.80
2018-09-10T02:36:02.678Z,9.90
2018-09-10T02:38:30.927Z,10.40
2018-09-10T02:40:59.008Z,9.30
2018-09-10T02:43:27.150Z,8.80
2018-09-10T02:45:55.301Z,8.90
2018-09-10T02:48:23.508Z,10.00
2018-09-10T02:50:51.676Z,11.10
2018-09-10T02:53:19.816Z,11.70
2018-09-10T02:55:47.960Z,11.50
2018-09-10T02:58:16.141Z,10.70
2018-09-10T03:00:44.295Z,11.10
2018-09-10T03:03:12.463Z,11.60
2018-09-10T03:05:40.610Z,12.00
2018-09-10T03:08:08.769Z,13.00
2018-09-10T03:10:36.950Z,13.50
2018-09-10T03:13:05.136Z,13.40
2018-09-10T03:15:33.351Z,14.20
2018-09-10T03:18:01.585Z,14.50
2018-09-10T03:20:29.726Z,14.60
2018-09-10T03:22:57.941Z,12.60
2018-09-10T03:25:26.073Z,13.20
2018-09-10T03:27:54.247Z,12.40
2018-09-10T03:30:22.415Z,14.30
2018-09-10T03:32:50.571Z,15.20
2018-09-10T03:35:18.753Z,14.30
2018-09-10T03:37:46.880Z,14.60
2018-09-10T03:40:15.057Z,15.50
2018-09-10T03:42:43.246Z,16.50
2018-09-10T03:45:11.397Z,17.70
2018-09-10T03:47:39.558Z,18.30
2018-09-10T03:50:07.764Z,18.30
2018-09-10T03:52:36.033Z,18.50
2018-09-10T03:55:04.225Z,17.50
2018-09-10T03:57:32.353Z,20.40
2018-09-10T04:00:00.501Z,20.80
2018-09-10T04:02:28.669Z,19.20
2018-09-10T04:04:56.812Z,19.80
2018-09-10T04:07:24.958Z,21.10
2018-09-10T04:09:53.164Z,23.90
2018-09-10T04:12:21.334Z,22.80
2018-09-10T04:14:49.495Z,23.50
2018-09-10T04:17:17.711Z,24.10
2018-09-10T04:19:45.853Z,25.00
2018-09-10T04:22:14.006Z,26.90
2018-09-10T04:24:42.177Z,25.20
2018-09-10T04:27:10.335Z,28.10
2018-09-10T04:29:38.508Z,28.80
2018-09-10T04:32:06.740Z,28.10
2018-09-10T04:34:34.966Z,30.00
2018-09-10T04:37:03.116Z,29.60
2018-09-10T04:39:31.260Z,31.10
2018-09-10T04:41:59.448Z,30.40
2018-09-10T04:44:27.585Z,31.00
2018-09-10T04:46:55.769Z,30.40
2018-09-10T04:49:23.903Z,29.70
2018-09-10T04:51:52.633Z,29.60
2018-09-10T04:54:20.787Z,29.90
2018-09-10T04:56:48.938Z,33.20
2018-09-10T04:59:17.146Z,33.70
2018-09-10T05:01:45.345Z,33.30
2018-09-10T05:04:13.480Z,32.00
2018-09-10T05:06:41.671Z,32.60
2018-09-10T05:09:10.111Z,33.90
2018-09-10T05:11:38.340Z,35.00
2018-09-10T05:14:06.476Z,33.90
2018-09-10T05:16:34.649Z,33.30
2018-09-10T05:19:02.789Z,35.40
2018-09-10T05:21:30.951Z,35.10
2018-09-10T05:23:59.076Z,35.00
2018-09-10T05:26:27.243Z,32.50
2018-09-10T05:28:55.416Z,33.00
2018-09-10T05:31:23.559Z,30.30
2018-09-10T05:33:51.747Z,25.70
2018-09-10T05:36:19.921Z,27.70
2018-09-10T05:38:48.150Z,27.20
2018-09-10T05:41:16.294Z,27.80
2018-09-10T05:43:44.431Z,26.90
2018-09-10T05:46:12.704Z,27.40
2018-09-10T05:48:41.013Z,27.10
2018-09-10T05:51:09.165Z,27.60
2018-09-10T05:53:37.377Z,28.20
2018-09-10T05:56:05.556Z,27.10
2018-09-10T05:58:33.724Z,25.10
2018-09-10T06:01:01.916Z,26.40
2018-09-10T06:03:30.084Z,26.90
2018-09-10T06:05:58.540Z,26.70
2018-09-10T06:08:26.745Z,28.00
2018-09-10T06:10:54.942Z,24.90
2018-09-10T06:13:23.420Z,26.70
2018-09-10T06:15:51.575Z,26.80
2018-09-10T06:18:19.739Z,28.00
2018-09-10T06:20:47.899Z,26.90
2018-09-10T06:23:16.255Z,25.60
2018-09-10T06:25:44.516Z,22.20
2018-09-10T06:28:12.688Z,25.00
2018-09-10T06:30:40.917Z,26.20
2018-09-10T06:33:09.108Z,24.90
2018-09-10T06:35:37.339Z,24.80
2018-09-10T06:38:05.640Z,24.80
2018-09-10T06:40:33.808Z,22.00
2018-09-10T06:43:02.004Z,21.20
2018-09-10T06:45:30.161Z,16.20
2018-09-10T06:47:58.346Z,22.80
2018-09-10T06:50:26.520Z,21.10
2018-09-10T06:52:54.787Z,18.30
2018-09-10T06:55:23.004Z,18.30
2018-09-10T06:57:51.178Z,17.70
2018-09-10T07:00:19.373Z,15.50
2018-09-10T07:02:47.492Z,16.00
2018-09-10T07:05:15.652Z,14.20
2018-09-10T07:07:43.835Z,10.50
2018-09-10T07:10:12.005Z,7.20
2018-09-10T07:12:40.179Z,4.50
2018-09-10T07:15:08.358Z,3.50
2018-09-10T07:17:36.609Z,1.00
2018-09-10T07:20:06.208Z,1.30
2018-09-10T07:22:34.359Z,2.10
2018-09-10T07:25:02.538Z,1.20
2018-09-10T07:27:30.679Z,1.00
2018-09-10T07:29:58.842Z,1.00
2018-09-10T07:32:27.037Z,1.00
2018-09-10T07:34:55.268Z,1.00
2018-09-10T07:37:23.473Z,1.00
2018-09-10T07:39:51.632Z,1.00
2018-09-10T07:42:20.077Z,1.00
2018-09-10T07:44:48.401Z,1.00
2018-09-10T07:47:16.551Z,1.00
2018-09-10T07:49:44.716Z,1.00
2018-09-10T07:52:12.888Z,1.00
2018-09-10T07:54:41.140Z,1.00
2018-09-10T07:57:09.226Z,1.00
2018-09-10T07:59:37.344Z,1.00
2018-09-10T08:02:05.612Z,1.00
2018-09-10T08:04:33.787Z,1.00
2018-09-10T08:07:01.914Z,1.00
2018-09-10T08:09:30.125Z,1.00
2018-09-10T08:11:58.324Z,1.00
2018-09-10T08:14:26.503Z,1.00
2018-09-10T08:16:54.699Z,1.00
2018-09-10T08:19:22.898Z,1.00
2018-09-10T08:21:51.100Z,1.00
2018-09-10T08:24:19.338Z,1.00
2018-09-10T08:26:47.433Z,1.00
2018-09-10T08:29:15.697Z,1.00
2018-09-10T08:31:43.877Z,1.00
2018-09-10T08:34:12.023Z,1.00
2018-09-10T08:36:40.165Z,1.00
2018-09-10T08:39:08.832Z,1.00
2018-09-10T08:41:36.968Z,1.00
2018-09-10T08:44:05.227Z,1.00
2018-09-10T08:46:33.425Z,1.00
2018-09-10T08:49:01.612Z,1.00
2018-09-10T08:51:29.745Z,1.00
2018-09-10T08:53:57.951Z,1.00
2018-09-10T08:56:26.179Z,1.00
2018-09-10T08:58:54.242Z,1.00
2018-09-10T09:01:22.489Z,1.00
2018-09-10T09:03:50.619Z,1.00
2018-09-10T09:06:18.814Z,1.00
2018-09-10T09:08:46.973Z,1.00
2018-09-10T09:11:15.123Z,1.00
2018-09-10T09:13:43.248Z,1.00
2018-09-10T09:16:11.411Z,1.00
2018-09-10T09:18:39.587Z,1.00
2018-09-10T09:21:07.759Z,1.00
2018-09-10T09:23:36.028Z,1.00
2018-09-10T09:26:04.234Z,1.00
2018-09-10T09:28:32.382Z,1.00
2018-09-10T09:31:00.571Z,1.00
2018-09-10T09:33:28.751Z,1.00
2018-09-10T09:36:02.420Z,1.00
2018-09-10T09:38:36.036Z,1.00
2018-09-10T09:42:09.433Z,1.00
2018-09-10T09:44:43.048Z,1.00
2018-09-10T09:47:11.232Z,1.00
2018-09-10T09:49:39.356Z,1.00
2018-09-10T09:52:07.545Z,1.00
2018-09-10T09:54:35.707Z,1.00
2018-09-10T09:57:03.848Z,1.00
2018-09-10T09:59:31.985Z,1.00
2018-09-10T10:02:05.553Z,1.00
2018-09-10T10:04:33.781Z,1.00
2018-09-10T10:07:01.848Z,1.00
2018-09-10T10:09:30.043Z,1.00
2018-09-10T10:11:58.271Z,1.00
2018-09-10T10:14:26.372Z,1.00
2018-09-10T10:16:54.531Z,1.00
2018-09-10T10:19:22.732Z,1.00
2018-09-10T10:21:50.947Z,1.00
2018-09-10T10:24:19.045Z,1.00
2018-09-10T10:26:47.209Z,1.00
2018-09-10T10:29:15.397Z,1.00
2018-09-10T10:31:43.552Z,1.00
2018-09-10T10:34:11.729Z,1.00
2018-09-10T10:36:39.891Z,1.00
2018-09-10T10:39:08.585Z,1.00
2018-09-10T10:41:36.812Z,1.00
2018-09-10T10:44:04.983Z,1.00
2018-09-10T10:46:33.179Z,1.00
2018-09-10T10:49:01.359Z,1.00
2018-09-10T10:51:29.479Z,1.00
2018-09-10T10:53:58.026Z,1.00
2018-09-10T10:56:26.193Z,1.00
2018-09-10T10:58:54.341Z,1.00
2018-09-10T11:01:22.586Z,1.00
2018-09-10T11:03:50.764Z,1.00
2018-09-10T11:06:18.935Z,1.00
2018-09-10T11:08:47.186Z,1.00
2018-09-10T11:11:15.394Z,1.00
2018-09-10T11:13:43.513Z,1.00
2018-09-10T11:16:11.812Z,1.00
2018-09-10T11:18:39.988Z,1.00
2018-09-10T11:21:08.186Z,1.00
2018-09-10T11:23:36.394Z,1.00
2018-09-10T11:26:04.506Z,1.00
2018-09-10T11:28:32.724Z,1.00
2018-09-10T11:31:00.877Z,1.00
2018-09-10T11:33:29.088Z,1.00
2018-09-10T11:35:57.236Z,1.00
2018-09-10T11:38:25.393Z,1.00
2018-09-10T11:40:53.600Z,1.00
2018-09-10T11:43:22.052Z,1.00
2018-09-10T11:45:50.711Z,1.00
2018-09-10T11:48:18.819Z,1.00
2018-09-10T11:50:47.002Z,1.00
2018-09-10T11:53:15.161Z,1.00
2018-09-10T11:55:43.315Z,1.00
2018-09-10T11:58:11.524Z,1.00
2018-09-10T12:00:40.317Z,1.00
2018-09-10T12:03:08.539Z,1.00
2018-09-10T12:05:36.738Z,1.00
2018-09-10T12:08:04.934Z,1.00
2018-09-10T12:10:33.207Z,1.00
2018-09-10T12:13:01.387Z,1.00
2018-09-10T12:15:29.592Z,1.00
2018-09-10T12:17:57.787Z,1.00
2018-09-10T12:20:25.957Z,1.00
2018-09-10T12:22:54.188Z,1.00
2018-09-10T12:25:22.338Z,1.00
2018-09-10T12:27:50.494Z,1.00
2018-09-10T12:30:18.697Z,1.00
2018-09-10T12:32:46.932Z,1.00
2018-09-10T12:35:15.157Z,1.00
2018-09-10T12:37:43.361Z,1.00
2018-09-10T12:40:11.544Z,1.00
2018-09-10T12:42:39.719Z,1.00
2018-09-10T12:45:07.924Z,1.00
2018-09-10T12:47:36.094Z,1.00
2018-09-10T12:50:04.272Z,1.00
2018-09-10T12:52:32.545Z,1.00
2018-09-10T12:55:00.739Z,1.00
2018-09-10T12:57:28.928Z,1.00
2018-09-10T12:59:57.147Z,1.00
2018-09-10T13:02:25.345Z,1.00
2018-09-10T13:04:53.492Z,1.00
2018-09-10T13:07:21.623Z,1.00
2018-09-10T13:09:49.789Z,1.00
2018-09-10T13:14:45.905Z,1.00
2018-09-10T13:17:14.061Z,1.00
2018-09-10T13:19:42.235Z,1.00
2018-09-10T13:22:10.557Z,1.00
2018-09-10T13:24:38.737Z,1.00
2018-09-10T13:27:06.903Z,1.00
2018-09-10T13:29:35.105Z,1.00
2018-09-10T13:34:31.313Z,1.00
2018-09-10T13:37:00.452Z,1.00
2018-09-10T13:39:28.674Z,1.00
2018-09-10T13:41:56.835Z,1.00
2018-09-10T13:44:24.981Z,1.00
2018-09-10T13:46:53.157Z,1.00
2018-09-10T13:49:21.445Z,1.00
2018-09-10T13:51:49.730Z,1.00
2018-09-10T13:54:18.088Z,1.00
2018-09-10T13:56:46.134Z,1.00
2018-09-10T13:59:14.415Z,1.00
2018-09-10T14:01:42.612Z,1.00
2018-09-10T14:04:10.831Z,1.00
2018-09-10T14:06:39.044Z,1.00
2018-09-10T14:09:07.760Z,1.00
2018-09-10T14:11:38.295Z,1.00
2018-09-10T14:14:07.388Z,1.00
2018-09-10T14:16:35.550Z,1.00
2018-09-10T14:19:03.926Z,1.00
2018-09-10T14:21:32.107Z,1.00
2018-09-10T14:24:00.355Z,1.00
2018-09-10T14:26:28.563Z,1.00
2018-09-10T14:28:56.704Z,1.00
2018-09-10T14:31:24.868Z,1.00
2018-09-10T14:33:53.090Z,1.00
2018-09-10T14:36:21.246Z,1.00
2018-09-10T14:38:49.404Z,1.00
2018-09-10T14:41:17.524Z,1.00
2018-09-10T14:43:45.713Z,1.00
2018-09-10T14:46:13.942Z,1.00
2018-09-10T14:48:42.124Z,1.00
2018-09-10T14:51:10.291Z,1.00
2018-09-10T14:53:38.472Z,1.00
2018-09-10T14:56:06.661Z,1.00
2018-09-10T14:58:35.062Z,1.00
2018-09-10T15:01:03.104Z,1.00
2018-09-10T15:03:31.262Z,1.00
2018-09-10T15:05:59.530Z,1.00
2018-09-10T15:08:27.579Z,1.00
2018-09-10T15:10:55.772Z,1.00
2018-09-10T15:13:23.948Z,1.00
2018-09-10T15:15:52.104Z,1.00
2018-09-10T15:18:20.360Z,1.00
2018-09-10T15:20:48.493Z,1.00
2018-09-10T15:23:16.760Z,1.00
2018-09-10T15:25:44.913Z,1.00
2018-09-10T15:28:13.079Z,1.00
2018-09-10T15:30:41.376Z,1.00
2018-09-10T15:33:09.547Z,1.00
2018-09-10T15:35:37.780Z,1.00
2018-09-10T15:38:05.952Z,1.00
2018-09-10T15:40:34.123Z,1.00
2018-09-10T15:43:02.387Z,1.00
2018-09-10T15:45:30.553Z,1.00
2018-09-10T15:47:58.717Z,1.00
2018-09-10T15:50:26.856Z,1.00
2018-09-10T15:52:55.003Z,1.00
2018-09-10T15:55:23.339Z,1.00
2018-09-10T15:57:51.535Z,1.00
2018-09-10T16:00:19.706Z,1.00
2018-09-10T16:02:47.901Z,1.00
2018-09-10T16:05:16.204Z,1.00
2018-09-10T16:07:44.378Z,1.00
2018-09-10T16:10:12.523Z,1.00
2018-09-10T16:12:40.703Z,1.00
2018-09-10T16:15:08.870Z,1.00
2018-09-10T16:17:37.068Z,1.00
2018-09-10T16:20:05.876Z,1.00
2018-09-10T16:22:34.058Z,1.00
2018-09-10T16:25:02.281Z,1.00
2018-09-10T16:27:30.565Z,1.00
2018-09-10T16:29:58.725Z,1.00
2018-09-10T16:32:26.892Z,1.00
2018-09-10T16:34:55.159Z,1.00
2018-09-10T16:37:23.321Z,1.00
2018-09-10T16:39:51.603Z,1.00
2018-09-10T16:42:19.764Z,1.00
2018-09-10T16:44:47.922Z,1.00
2018-09-10T16:47:16.076Z,1.00
2018-09-10T16:49:44.337Z,1.00
2018-09-10T16:52:12.524Z,1.00
2018-09-10T16:54:40.782Z,1.00
2018-09-10T16:57:08.843Z,1.00
2018-09-10T16:59:37.022Z,1.00
2018-09-10T17:02:05.195Z,1.00
2018-09-10T17:04:33.386Z,1.00
2018-09-10T17:07:01.583Z,1.00
2018-09-10T17:09:29.861Z,1.00
2018-09-10T17:11:58.065Z,1.00
2018-09-10T17:14:26.229Z,1.00
2018-09-10T17:16:54.370Z,1.00
2018-09-10T17:19:22.527Z,1.00
2018-09-10T17:21:50.711Z,1.00
2018-09-10T17:24:18.831Z,1.00
2018-09-10T17:26:47.008Z,1.00
2018-09-10T17:29:15.286Z,1.00
2018-09-10T17:31:43.464Z,1.00
2018-09-10T17:34:11.615Z,1.00
2018-09-10T17:36:39.796Z,1.00
2018-09-10T17:39:08.062Z,1.00
2018-09-10T17:41:36.293Z,1.00
2018-09-10T17:44:04.597Z,1.00
2018-09-10T17:46:32.820Z,1.00
2018-09-10T17:49:01.044Z,1.00
2018-09-10T17:51:29.502Z,1.00
2018-09-10T17:53:57.622Z,1.00
2018-09-10T17:56:25.769Z,1.00
2018-09-10T17:58:53.932Z,1.00
2018-09-10T18:01:22.096Z,1.00
2018-09-10T18:03:50.249Z,1.00
2018-09-10T18:06:18.388Z,1.00
2018-09-10T18:08:46.574Z,1.00
2018-09-10T18:11:14.697Z,1.00
2018-09-10T18:13:42.864Z,1.00
2018-09-10T18:16:11.084Z,1.00
2018-09-10T18:18:39.310Z,1.00
2018-09-10T18:21:07.511Z,1.00
2018-09-10T18:23:35.661Z,1.00
2018-09-10T18:26:03.918Z,1.00
2018-09-10T18:28:32.127Z,1.00
2018-09-10T18:31:00.410Z,1.00
2018-09-10T18:33:28.687Z,1.00
2018-09-10T18:35:56.838Z,1.00
2018-09-10T18:38:24.991Z,1.00
2018-09-10T18:40:53.292Z,1.00
2018-09-10T18:43:21.446Z,1.00
2018-09-10T18:45:49.823Z,1.00
2018-09-10T18:48:17.985Z,1.00
2018-09-10T18:50:46.164Z,1.00
2018-09-10T18:53:14.333Z,1.00
2018-09-10T18:55:42.502Z,1.00
2018-09-10T18:58:10.703Z,1.00
2018-09-10T19:00:38.920Z,1.00
2018-09-10T19:03:07.096Z,1.00
2018-09-10T19:05:35.311Z,1.00
2018-09-10T19:08:03.514Z,1.00
2018-09-10T19:10:31.792Z,1.00
2018-09-10T19:13:00.308Z,1.00
2018-09-10T19:15:28.471Z,1.00
2018-09-10T19:17:56.710Z,1.00
2018-09-10T19:20:24.862Z,1.00
2018-09-10T19:22:53.083Z,1.00
2018-09-10T19:25:21.252Z,1.00
2018-09-10T19:27:49.393Z,1.00
2018-09-10T19:30:17.566Z,1.00
2018-09-10T19:32:45.672Z,1.00
2018-09-10T19:35:13.851Z,1.00
2018-09-10T19:37:42.072Z,1.00
2018-09-10T19:40:10.203Z,1.00
2018-09-10T19:42:38.325Z,1.00
2018-09-10T19:45:06.679Z,1.00
2018-09-10T19:47:34.944Z,1.00
2018-09-10T19:50:03.147Z,1.00
2018-09-10T19:52:31.375Z,1.00
2018-09-10T19:54:59.582Z,1.00
2018-09-10T19:57:27.735Z,1.00
2018-09-10T19:59:56.122Z,1.00
2018-09-10T20:02:24.276Z,1.00
2018-09-10T20:04:52.424Z,1.00
2018-09-10T20:07:20.630Z,1.00
2018-09-10T20:09:48.863Z,1.00
2018-09-10T20:12:16.984Z,1.00
2018-09-10T20:14:45.137Z,1.00
2018-09-10T20:17:13.406Z,1.00
2018-09-10T20:19:41.575Z,1.00
2018-09-10T20:22:13.554Z,1.00
2018-09-10T20:24:41.731Z,1.00
2018-09-10T20:27:09.852Z,1.00
2018-09-10T20:29:37.987Z,1.00
2018-09-10T20:32:06.256Z,1.00
2018-09-10T20:34:34.596Z,1.00
2018-09-10T20:37:03.618Z,1.00
2018-09-10T20:39:31.861Z,1.00
2018-09-10T20:42:00.039Z,1.00
2018-09-10T20:44:28.220Z,1.00
2018-09-10T20:46:56.445Z,1.00
2018-09-10T20:49:24.616Z,1.00
2018-09-10T20:51:52.805Z,1.00
2018-09-10T20:54:20.959Z,1.00
2018-09-10T20:56:49.078Z,1.00
2018-09-10T20:59:17.220Z,1.00
2018-09-10T21:01:45.353Z,1.00
2018-09-10T21:04:13.520Z,1.00
2018-09-10T21:06:41.687Z,1.00
2018-09-10T21:09:10.633Z,1.00
2018-09-10T21:11:38.807Z,1.00
2018-09-10T21:14:06.972Z,1.00
2018-09-10T21:16:35.166Z,1.00
2018-09-10T21:19:03.364Z,1.00
2018-09-10T21:21:31.496Z,1.00
2018-09-10T21:23:59.730Z,1.00
2018-09-10T21:26:27.884Z,1.00
2018-09-10T21:28:56.041Z,1.00
2018-09-10T21:31:24.278Z,1.00
2018-09-10T21:33:52.439Z,1.00
2018-09-10T21:36:20.617Z,1.00
2018-09-10T21:38:48.850Z,1.00
2018-09-10T21:41:17.008Z,1.00
2018-09-10T21:43:45.150Z,1.00
2018-09-10T21:46:13.463Z,1.00
2018-09-10T21:48:41.624Z,1.00
2018-09-10T21:51:09.842Z,1.00
2018-09-10T21:53:38.049Z,1.00
2018-09-10T21:56:06.196Z,1.00
2018-09-10T21:58:34.388Z,1.00
2018-09-10T22:01:02.622Z,1.00
2018-09-10T22:03:30.800Z,1.00
2018-09-10T22:05:58.984Z,1.00
2018-09-10T22:08:27.204Z,1.00
2018-09-10T22:10:55.362Z,1.00
2018-09-10T22:13:23.506Z,1.00
2018-09-10T22:15:51.712Z,1.00
2018-09-10T22:18:19.904Z,1.00
2018-09-10T22:20:48.039Z,1.00
2018-09-10T22:23:16.210Z,1.00
2018-09-10T22:25:44.439Z,1.00
2018-09-10T22:28:12.715Z,1.00
2018-09-10T22:30:40.861Z,1.00
2018-09-10T22:33:09.088Z,1.00
2018-09-10T22:35:37.249Z,1.00
2018-09-10T22:38:05.509Z,1.00
2018-09-10T22:40:33.674Z,1.00
2018-09-10T22:43:01.868Z,1.00
2018-09-10T22:45:30.044Z,1.00
2018-09-10T22:47:58.387Z,1.00
2018-09-10T22:50:26.553Z,1.00
2018-09-10T22:52:54.691Z,1.00
2018-09-10T22:55:22.909Z,1.00
2018-09-10T22:57:51.039Z,1.00
2018-09-10T23:00:19.322Z,1.00
2018-09-10T23:02:47.443Z,1.00
2018-09-10T23:05:15.598Z,1.00
2018-09-10T23:07:43.786Z,1.00
2018-09-10T23:10:11.944Z,1.00
2018-09-10T23:12:40.115Z,1.00
2018-09-10T23:15:08.268Z,1.00
2018-09-10T23:17:36.420Z,1.00
2018-09-10T23:20:05.050Z,1.00
2018-09-10T23:22:33.180Z,1.00
2018-09-10T23:25:01.420Z,1.00
2018-09-10T23:27:29.548Z,1.00
2018-09-10T23:29:57.799Z,1.00
2018-09-10T23:32:25.941Z,1.00
2018-09-10T23:34:54.117Z,1.00
2018-09-10T23:37:22.252Z,1.00
2018-09-10T23:39:50.652Z,1.00
2018-09-10T23:42:18.821Z,1.00
2018-09-10T23:44:46.946Z,1.00
2018-09-10T23:47:15.106Z,1.00
2018-09-10T23:49:43.265Z,1.00
2018-09-10T23:52:11.412Z,1.00
2018-09-10T23:54:39.589Z,1.00
2018-09-10T23:57:07.764Z,1.00
2018-09-10T23:59:35.909Z,1.00
